• Join FlightAware (Why Join?)
  • Login
  • US Flag 
11:02AM EDT


 

Airport Tracker/Info


-or-


 

Live Flight TrackerFlight Track Log ✈ VH-CZS ✈ 12-Jul-2013 ✈ YSCB / CBR - YSCN / CDU

Flight Track Log - Related Links

Times and Time Zones

All times are in EDT time to prevent confusion due to time zone crossing. See the VH-CZS flight status page for this flight to view local times or setup timezone preferences in your user account.

Time Position Orientation Groundspeed Altitude Reporting Facility
EDT Latitude Longitude Course Direction KTS MPH feet Rate Location/Type
01:02AM -35.2895 149.1938 21° North 76 87 2,300  Level Aus ATC (RADAR)
01:03AM -35.2707 149.2028 21° North 105 121 2,900 600 Climbing Aus ATC (RADAR)
01:04AM -35.2709 149.2236 91° East 102 117 3,200 600 Climbing Aus ATC (RADAR)
01:05AM -35.2511 149.2435 39° Northeast 89 102 3,900 600 Climbing Aus ATC (RADAR)
01:06AM -35.2359 149.2666 51° Northeast 95 109 4,400 360 Climbing Aus ATC (RADAR)
01:07AM -35.2231 149.2907 57° Northeast 101 116 4,600 120 Climbing Aus ATC (RADAR)
01:07AM -35.2126 149.3075 53° Northeast 105 121 4,600 -180 Level Aus ATC (RADAR)
01:08AM -35.1980 149.3337 56° Northeast 101 116 4,400 -60 Descending Aus ATC (RADAR)
01:09AM -35.1831 149.3551 50° Northeast 97 112 4,500  Climbing Aus ATC (RADAR)
01:10AM -35.1646 149.3820 50° Northeast 102 117 4,500  Level Aus ATC (RADAR)
01:11AM -35.1490 149.4077 53° Northeast 104 120 4,500  Level Aus ATC (RADAR)
01:12AM -35.1352 149.4343 58° Northeast 102 117 4,500  Level Aus ATC (RADAR)
01:15AM -35.0319 149.5292 37° Northeast 4,500  Level Aus ATC (Calculated)
01:17AM -35.0014 149.5569 37° Northeast  Level FlightAware Approximate
01:17AM -35.0319 149.5292 360° North 4,500  Level Aus ATC (Calculated)
01:18AM -35.0319 149.5292 37° Northeast 4,500  Level Aus ATC (Calculated)
01:19AM -34.9553 149.5985 360° North 4,500  Level Aus ATC (Calculated)
01:20AM -34.9553 149.5985 270° West 4,500  Level Aus ATC (Calculated)
01:20AM -34.9553 149.5985 37° Northeast 4,500  Level Aus ATC (Calculated)
01:22AM -34.9263 149.6247 37° Northeast  Level FlightAware Approximate
01:23AM -34.9025 149.6462 37° Northeast  Level FlightAware Approximate
01:24AM -34.8787 149.6677 37° Northeast  Level FlightAware Approximate
01:25AM -34.8549 149.6892 36° Northeast  Level FlightAware Approximate
01:26AM -34.8310 149.7106 36° Northeast  Level FlightAware Approximate
01:27AM -34.8072 149.7321 36° Northeast  Level FlightAware Approximate
01:28AM -34.7834 149.7535 36° Northeast  Level FlightAware Approximate
01:29AM -34.7595 149.7750 36° Northeast  Level FlightAware Approximate
01:29AM -34.7610 149.8548 312° West 3,900  Level Aus ATC (Calculated)
01:31AM -34.7224 149.8017 311° West  Level FlightAware Approximate
01:32AM -34.7421 149.8287 132° Southeast  Level FlightAware Approximate
01:33AM -34.7224 149.8017 312° West  Level FlightAware Approximate
01:34AM -34.7421 149.8287 132° Southeast  Level FlightAware Approximate
01:35AM -34.7160 149.8195 51° Northeast  Level FlightAware Approximate
01:36AM -34.6973 149.8475 51° Northeast  Level FlightAware Approximate
01:37AM -34.6785 149.8754 51° Northeast  Level FlightAware Approximate
01:38AM -34.6598 149.9033 51° Northeast  Level FlightAware Approximate
01:39AM -34.6410 149.9312 51° Northeast  Level FlightAware Approximate
01:40AM -34.6222 149.9590 51° Northeast  Level FlightAware Approximate
01:41AM -34.6034 149.9869 51° Northeast  Level FlightAware Approximate
01:42AM -34.5846 150.0148 51° Northeast  Level FlightAware Approximate
01:43AM -34.5659 150.0426 51° Northeast  Level FlightAware Approximate
01:44AM -34.5471 150.0704 51° Northeast  Level FlightAware Approximate
01:45AM -34.5283 150.0982 51° Northeast  Level FlightAware Approximate
01:46AM -34.5094 150.1260 51° Northeast  Level FlightAware Approximate
01:47AM -34.4906 150.1538 51° Northeast  Level FlightAware Approximate
01:48AM -34.4718 150.1816 51° Northeast  Level FlightAware Approximate
01:49AM -34.4530 150.2093 51° Northeast  Level FlightAware Approximate
01:49AM -34.3219 150.4272 234° Southwest 3,900  Level Aus ATC (Calculated)
01:50AM -34.4342 150.2371 51° Northeast  Level FlightAware Approximate
01:51AM -34.2973 150.4591 47° Northeast  Level FlightAware Approximate
01:52AM -34.2770 150.4852 47° Northeast  Level FlightAware Approximate
01:53AM -34.2568 150.5114 47° Northeast  Level FlightAware Approximate
01:54AM -34.2365 150.5376 47° Northeast  Level FlightAware Approximate
01:55AM -34.2162 150.5637 47° Northeast  Level FlightAware Approximate
01:56AM -34.1959 150.5898 47° Northeast  Level FlightAware Approximate
01:57AM -34.1756 150.6159 47° Northeast  Level FlightAware Approximate
01:57AM -34.1750 150.6167 360° North  Level Aus ATC (Calculated)
01:59AM -34.1330 150.6167 North  Level FlightAware Approximate
02:00AM -34.1627 150.6167 180° South  Level FlightAware Approximate
02:01AM -34.1923 150.6167 180° South  Level FlightAware Approximate
02:01AM -34.0402 150.6872 205° Southwest  Level Aus ATC (Calculated)
02:02AM -34.1627 150.6167 North  Level FlightAware Approximate
02:03AM -34.0403 150.6872 203° Southwest  Level Estimated
02:04AM -34.0403 150.6872 23° Northeast  Level Estimated
02:05AM -34.0403 150.6872 348° North  Level Estimated
02:06AM -34.0403 150.6872 348° North  Level Estimated
02:07AM -34.0403 150.6872 348° North  Level Estimated
02:08AM -34.0403 150.6872 348° North  Level Estimated